Anchor Point, AK (99556)

3:41 AM AKST on February 12, 2016 (GMT -0900)
East Hill | | Change Station
CLOSE
Current Station
Personal Weather Station
Location: Homer, AK
Elevation: 597 ft
Nearby Weather Stations

Elev 597 ft 59.66 °N, 151.52 °W | Updated 58 seconds ago

Overcast
Overcast
37.1 °F
Feels Like 37 °F
N
0.0
Wind Variable Wind from NW
Gusts 6.0 mph

Today
High -- | Low -- °F
--% Chance of Precip.
Yesterday
High -- | Low -- °F
Precip. -- in
Pressure 29.42 in
Visibility 10.0 miles
Clouds Overcast 5500 ft
Windchill 37 °F
Dew Point 32 °F
Humidity 81%
Rainfall 0.00 in
Snow Depth Not available.
8:52 AM 5:50 PM
Waxing Crescent, 20% visible
METAR PAHO 121053Z AUTO 04003KT 10SM OVC055 02/00 A2942 RMK AO2 SLP961 T00220000 TSNO $
Pressure 29.42 in
Visibility 10.0 miles
Clouds Overcast 5500 ft
Windchill 37 °F
Dew Point 32 °F
Humidity 81%
Rainfall 0.00 in
Snow Depth Not available.
8:52 AM 5:50 PM
Waxing Crescent, 20% visible
METAR PAHO 121053Z AUTO 04003KT 10SM OVC055 02/00 A2942 RMK AO2 SLP961 T00220000 TSNO $

10-Day Weather Forecast

Almanac

Astronomy

Feb. 12, 2016 Rise Set
Actual Time
Civil Twilight
Nautical Twilight
Astronomical Twilight
Moon
Length of Visible Light
Length of Day
Tomorrow will be .
, % of the Moon is Illuminated

Today's Extremes

State Highs State Lows

Community

WunderPhotos

Upload Photos

1,892,300 photos uploaded!

WunderBlog® & News

Nearby

Air Quality

  Air Quality AQ Index Pollutant
Not available.

Snow Depth

Station Depth Elevation

Earthquake Activity

City Distance Mag. Time & Date
Minimum magnitude displayed is 2.5.

Coastal Water Temperatures

Place Temperature

Stations

Nearby Weather Stations

Station Location Temp. Windchill Dew Point Humidity Wind Precip. Elev Updated Type
                   

Watches & Warnings

There are currently no watches in effect.